Welkom op de weersite van Veghel e.o.

Het is weer maart en dat betekend weer Lente.

Echter na de warme februari.

Nu weer onstuimig en regenachtig.

Het gezegde "maart roert zijn staart" is weer actueel.




Webcam Veghel  Webcam Veghel


Onweer radar Meer informatie blitzortung!


Regen radar Meer informatie rain snow radar


U vindt ons ook hier:

Het Weer Aktueel

European Weather Network

Weather Underground

Benelux Weer Netwerk

AWEKAS


Het weer levert geen direct gevaar op.    Er zijn geen waarschuwingen afgegeven.

METAR rapporten vliegvelden

   
EHAM - Amsterdam
Gewijzigd: 26-05-2019 23:55
Wat regen mogelijk, Motregen, Grotendeels bewolkt  
Wat regen mogelijk, Motregen, Grotendeels bewolkt  
   Wind: Westen 24.1 km/h
Wind: Westen 24.1 km/h
Temperatuur: 14°C
Dauwpunt: 13°C
Vochtigheid: 94%
Barometer: 1009 hPa
Bewolking: Mostly Cloudy
Zicht: 6 km
Bewolking: Licht bewolkt 500 ft,
Gedeeltelijk bewolkt 700 ft,
Grotendeels bewolkt 3300 ft
EHAM 262155Z 26013KT 240V300 6000 -RADZ FEW005 SCT007 BKN033 14/13 Q1009 RERA REDZ BECMG 9999 NSW
EHEH - Eindhoven
Gewijzigd: 26-05-2019 23:55
Bewolking  
Bewolking  
   Wind: WZW 22.2 km/h
Wind: WZW 22.2 km/h
Temperatuur: 16°C
Dauwpunt: 11°C
Vochtigheid: 72%
Barometer: 1010 hPa
Bewolking: Overcast
Zicht: meer dan 10 km
Bewolking: Gedeeltelijk bewolkt 2000 ft,
Bewolking 2300 ft
EHEH 262155Z AUTO 24012KT 200V280 9999 SCT020/// OVC023/// 16/11 Q1010 WHT
EHGR - Gilze/Rijen
Gewijzigd: 26-05-2019 23:55
Heavy Drizzle, Grotendeels bewolkt  
Heavy Drizzle, Grotendeels bewolkt  
   Wind: WZW 11.1 km/h
Wind: WZW 11.1 km/h
Temperatuur: 14°C
Dauwpunt: 13°C
Vochtigheid: 94%
Barometer: 1010 hPa
Bewolking: Mostly Cloudy
Zicht: 3 km
Bewolking: Licht bewolkt 500 ft,
Grotendeels bewolkt 700 ft,
Grotendeels bewolkt 800 ft,
Licht bewolkt 1500 ft
EHGR 262155Z AUTO 24006KT 220V280 3100 +DZ FEW005 BKN007 BKN008 FEW015CB 14/13 Q1010 YLO
EHBK - Maastricht
Gewijzigd: 26-05-2019 23:55
Bewolking  
Bewolking  
   Wind: ZW 24.1 km/h
Wind: ZW 24.1 km/h
Temperatuur: 15°C
Dauwpunt: 11°C
Vochtigheid: 77%
Barometer: 1011 hPa
Bewolking: Overcast
Zicht: meer dan 10 km
Bewolking: Bewolking 2500 ft
EHBK 262155Z AUTO 23013KT 9999 OVC025 15/11 Q1011
EHVK - Volkel
Gewijzigd: 26-05-2019 23:59
Bewolking  
Bewolking  
   Wind: WZW 24.1 km/h
Wind: WZW 24.1 km/h
Temperatuur: 17°C
Dauwpunt: 11°C
Vochtigheid: 68%
Barometer: 1009 hPa
Bewolking: Overcast
Zicht: meer dan 10 km
Bewolking: Grotendeels bewolkt 2400 ft,
Bewolking 2700 ft
EHVK 262159Z AUTO 24013KT 210V280 9999 BKN024 OVC027 17/11 Q1009 WHT
EHFS - Vlissingen
Gewijzigd: 26-05-2019 23:55
Wat regen mogelijk, Bewolking  
Wat regen mogelijk, Bewolking  
   Wind: WZW 33.3 km/h
Wind: WZW 33.3 km/h
Temperatuur: 14°C
Dauwpunt: 13°C
Vochtigheid: 94%
Barometer: 1010 hPa
Bewolking: Overcast
Zicht: 8 km
Bewolking: Bewolking 600 ft
EHFS 262155Z AUTO 25018KT 8000 -RA OVC006/// 14/13 Q1010 W///H///

Script ontwikkeld door  Saratoga-weather.org Aangepast voor de template door  Weerstation Leuven

Apparatuur in gebruik:

Weerstation
Davis VP2

Weerprogramma
WeatherLink

Weercomputer
Sponsor

Webleverancier
My provider

Davis VP2

WeatherLink

Sponsor

My provider